sensor_id;sensor_type;location;lat;lon;timestamp;temperature;humidity
12166;DHT22;6146;48.128;11.476;2022-12-18T00:01:20;-3.80;99.90
12166;DHT22;6146;48.128;11.476;2022-12-18T00:03:47;-3.80;99.90
12166;DHT22;6146;48.128;11.476;2022-12-18T00:06:13;-3.80;99.90
12166;DHT22;6146;48.128;11.476;2022-12-18T00:08:39;-3.80;99.90
12166;DHT22;6146;48.128;11.476;2022-12-18T00:11:07;-3.70;99.90
12166;DHT22;6146;48.128;11.476;2022-12-18T00:13:33;-3.80;99.90
12166;DHT22;6146;48.128;11.476;2022-12-18T00:16:09;-3.90;99.90
12166;DHT22;6146;48.128;11.476;2022-12-18T00:18:35;-4.00;99.90
12166;DHT22;6146;48.128;11.476;2022-12-18T00:21:03;-4.00;99.90
12166;DHT22;6146;48.128;11.476;2022-12-18T00:23:30;-4.00;99.90
12166;DHT22;6146;48.128;11.476;2022-12-18T00:26:03;-4.00;99.90
12166;DHT22;6146;48.128;11.476;2022-12-18T00:28:29;-3.90;99.90
12166;DHT22;6146;48.128;11.476;2022-12-18T00:33:26;-3.80;99.90
12166;DHT22;6146;48.128;11.476;2022-12-18T00:35:51;-3.70;99.90
12166;DHT22;6146;48.128;11.476;2022-12-18T00:38:17;-3.80;99.90
12166;DHT22;6146;48.128;11.476;2022-12-18T00:40:42;-3.80;99.90
12166;DHT22;6146;48.128;11.476;2022-12-18T00:43:09;-3.80;99.90
12166;DHT22;6146;48.128;11.476;2022-12-18T00:45:34;-3.80;99.90
12166;DHT22;6146;48.128;11.476;2022-12-18T00:48:00;-3.80;99.90
12166;DHT22;6146;48.128;11.476;2022-12-18T00:50:25;-3.90;99.90
12166;DHT22;6146;48.128;11.476;2022-12-18T00:52:51;-3.80;99.90
12166;DHT22;6146;48.128;11.476;2022-12-18T00:55:17;-3.90;99.90
12166;DHT22;6146;48.128;11.476;2022-12-18T00:57:43;-3.90;99.90
12166;DHT22;6146;48.128;11.476;2022-12-18T01:00:11;-3.90;99.90
12166;DHT22;6146;48.128;11.476;2022-12-18T01:02:38;-3.90;99.90
12166;DHT22;6146;48.128;11.476;2022-12-18T01:05:04;-3.90;99.90
12166;DHT22;6146;48.128;11.476;2022-12-18T01:07:30;-3.80;99.90
12166;DHT22;6146;48.128;11.476;2022-12-18T01:09:55;-3.70;99.90
12166;DHT22;6146;48.128;11.476;2022-12-18T01:12:21;-3.60;99.90
12166;DHT22;6146;48.128;11.476;2022-12-18T01:14:47;-3.60;99.90
12166;DHT22;6146;48.128;11.476;2022-12-18T01:17:12;-3.50;99.90
12166;DHT22;6146;48.128;11.476;2022-12-18T01:19:38;-3.60;99.90
12166;DHT22;6146;48.128;11.476;2022-12-18T01:22:03;-3.60;99.90
12166;DHT22;6146;48.128;11.476;2022-12-18T01:24:29;-3.60;99.90
12166;DHT22;6146;48.128;11.476;2022-12-18T01:26:55;-3.60;99.90
12166;DHT22;6146;48.128;11.476;2022-12-18T01:29:22;-3.60;99.90
12166;DHT22;6146;48.128;11.476;2022-12-18T01:31:48;-3.50;99.90
12166;DHT22;6146;48.128;11.476;2022-12-18T01:34:13;-3.50;99.90
12166;DHT22;6146;48.128;11.476;2022-12-18T01:36:39;-3.40;99.90
12166;DHT22;6146;48.128;11.476;2022-12-18T01:39:10;-3.50;99.90
12166;DHT22;6146;48.128;11.476;2022-12-18T01:41:37;-3.50;99.90
12166;DHT22;6146;48.128;11.476;2022-12-18T01:47:38;-3.70;99.90
12166;DHT22;6146;48.128;11.476;2022-12-18T01:52:46;-3.50;99.90
12166;DHT22;6146;48.128;11.476;2022-12-18T01:55:16;-3.80;99.90
12166;DHT22;6146;48.128;11.476;2022-12-18T01:57:42;-4.00;99.90
12166;DHT22;6146;48.128;11.476;2022-12-18T02:00:15;-4.00;99.90
12166;DHT22;6146;48.128;11.476;2022-12-18T02:02:43;-3.90;99.90
12166;DHT22;6146;48.128;11.476;2022-12-18T02:05:10;-3.80;99.90
12166;DHT22;6146;48.128;11.476;2022-12-18T02:08:10;-3.80;99.90
12166;DHT22;6146;48.128;11.476;2022-12-18T02:10:40;-3.80;99.90
12166;DHT22;6146;48.128;11.476;2022-12-18T02:18:36;-3.80;99.90
12166;DHT22;6146;48.128;11.476;2022-12-18T02:21:25;-3.80;99.90
12166;DHT22;6146;48.128;11.476;2022-12-18T02:26:46;-3.90;99.90
12166;DHT22;6146;48.128;11.476;2022-12-18T02:29:16;-3.90;99.90
12166;DHT22;6146;48.128;11.476;2022-12-18T02:31:47;-4.00;99.90
12166;DHT22;6146;48.128;11.476;2022-12-18T02:34:16;-4.00;99.90
12166;DHT22;6146;48.128;11.476;2022-12-18T02:36:44;-4.00;99.90
12166;DHT22;6146;48.128;11.476;2022-12-18T02:39:12;-4.00;99.90
12166;DHT22;6146;48.128;11.476;2022-12-18T02:41:39;-4.00;99.90
12166;DHT22;6146;48.128;11.476;2022-12-18T02:44:10;-4.00;99.90
12166;DHT22;6146;48.128;11.476;2022-12-18T02:46:49;-3.90;99.90
12166;DHT22;6146;48.128;11.476;2022-12-18T02:52:05;-3.90;99.90
12166;DHT22;6146;48.128;11.476;2022-12-18T02:55:42;-4.00;99.90
12166;DHT22;6146;48.128;11.476;2022-12-18T02:57:55;-4.00;99.90
12166;DHT22;6146;48.128;11.476;2022-12-18T03:00:28;-4.00;99.90
12166;DHT22;6146;48.128;11.476;2022-12-18T03:03:04;-4.00;99.90
12166;DHT22;6146;48.128;11.476;2022-12-18T03:05:52;-4.10;99.90
12166;DHT22;6146;48.128;11.476;2022-12-18T03:08:28;-4.10;99.90
12166;DHT22;6146;48.128;11.476;2022-12-18T03:10:59;-4.10;99.90
12166;DHT22;6146;48.128;11.476;2022-12-18T03:13:36;-4.00;99.90
12166;DHT22;6146;48.128;11.476;2022-12-18T03:16:03;-4.00;99.90
12166;DHT22;6146;48.128;11.476;2022-12-18T03:18:38;-4.00;99.90
12166;DHT22;6146;48.128;11.476;2022-12-18T03:21:08;-4.00;99.90
12166;DHT22;6146;48.128;11.476;2022-12-18T03:23:49;-3.90;99.90
12166;DHT22;6146;48.128;11.476;2022-12-18T03:26:20;-3.90;99.90
12166;DHT22;6146;48.128;11.476;2022-12-18T03:28:56;-4.00;99.90
12166;DHT22;6146;48.128;11.476;2022-12-18T03:31:23;-3.90;99.90
12166;DHT22;6146;48.128;11.476;2022-12-18T03:33:57;-4.00;99.90
12166;DHT22;6146;48.128;11.476;2022-12-18T03:36:24;-3.90;99.90
12166;DHT22;6146;48.128;11.476;2022-12-18T03:38:51;-3.80;99.90
12166;DHT22;6146;48.128;11.476;2022-12-18T03:43:52;-3.60;99.90
12166;DHT22;6146;48.128;11.476;2022-12-18T03:46:30;-3.90;99.90
12166;DHT22;6146;48.128;11.476;2022-12-18T03:49:16;-3.80;99.90
12166;DHT22;6146;48.128;11.476;2022-12-18T03:52:12;-3.80;99.90
12166;DHT22;6146;48.128;11.476;2022-12-18T03:54:37;-3.80;99.90
12166;DHT22;6146;48.128;11.476;2022-12-18T03:57:11;-3.70;99.90
12166;DHT22;6146;48.128;11.476;2022-12-18T03:59:39;-3.80;99.90
12166;DHT22;6146;48.128;11.476;2022-12-18T04:02:06;-3.90;99.90
12166;DHT22;6146;48.128;11.476;2022-12-18T04:04:34;-3.80;99.90
12166;DHT22;6146;48.128;11.476;2022-12-18T04:07:01;-3.80;99.90
12166;DHT22;6146;48.128;11.476;2022-12-18T04:09:28;-3.70;99.90
12166;DHT22;6146;48.128;11.476;2022-12-18T04:11:55;-3.70;99.90
12166;DHT22;6146;48.128;11.476;2022-12-18T04:14:21;-3.70;99.90
12166;DHT22;6146;48.128;11.476;2022-12-18T04:16:46;-3.70;99.90
12166;DHT22;6146;48.128;11.476;2022-12-18T04:19:12;-3.70;99.90
12166;DHT22;6146;48.128;11.476;2022-12-18T04:21:37;-3.70;99.90
12166;DHT22;6146;48.128;11.476;2022-12-18T04:24:03;-3.70;99.90
12166;DHT22;6146;48.128;11.476;2022-12-18T04:26:29;-3.80;99.90
12166;DHT22;6146;48.128;11.476;2022-12-18T04:28:54;-3.80;99.90
12166;DHT22;6146;48.128;11.476;2022-12-18T04:31:20;-3.80;99.90
12166;DHT22;6146;48.128;11.476;2022-12-18T04:33:45;-3.90;99.90
12166;DHT22;6146;48.128;11.476;2022-12-18T04:36:11;-3.90;99.90
12166;DHT22;6146;48.128;11.476;2022-12-18T04:38:37;-3.90;99.90
12166;DHT22;6146;48.128;11.476;2022-12-18T04:41:03;-3.90;99.90
12166;DHT22;6146;48.128;11.476;2022-12-18T04:43:29;-3.80;99.90
12166;DHT22;6146;48.128;11.476;2022-12-18T04:46:07;-3.80;99.90
12166;DHT22;6146;48.128;11.476;2022-12-18T04:48:33;-3.70;99.90
12166;DHT22;6146;48.128;11.476;2022-12-18T04:50:59;-3.70;99.90
12166;DHT22;6146;48.128;11.476;2022-12-18T04:53:25;-3.70;99.90
12166;DHT22;6146;48.128;11.476;2022-12-18T04:55:50;-3.80;99.90
12166;DHT22;6146;48.128;11.476;2022-12-18T04:58:16;-3.90;99.90
12166;DHT22;6146;48.128;11.476;2022-12-18T05:00:42;-3.80;99.90
12166;DHT22;6146;48.128;11.476;2022-12-18T05:03:07;-3.80;99.90
12166;DHT22;6146;48.128;11.476;2022-12-18T05:05:35;-3.80;99.90
12166;DHT22;6146;48.128;11.476;2022-12-18T05:08:00;-3.80;99.90
12166;DHT22;6146;48.128;11.476;2022-12-18T05:10:26;-3.90;99.90
12166;DHT22;6146;48.128;11.476;2022-12-18T05:12:51;-3.80;99.90
12166;DHT22;6146;48.128;11.476;2022-12-18T05:15:24;-3.90;99.90
12166;DHT22;6146;48.128;11.476;2022-12-18T05:17:49;-3.90;99.90
12166;DHT22;6146;48.128;11.476;2022-12-18T05:20:15;-3.90;99.90
12166;DHT22;6146;48.128;11.476;2022-12-18T05:22:41;-3.90;99.90
12166;DHT22;6146;48.128;11.476;2022-12-18T05:25:07;-3.90;99.90
12166;DHT22;6146;48.128;11.476;2022-12-18T05:27:32;-4.00;99.90
12166;DHT22;6146;48.128;11.476;2022-12-18T05:29:58;-3.90;99.90
12166;DHT22;6146;48.128;11.476;2022-12-18T05:32:23;-3.90;99.90
12166;DHT22;6146;48.128;11.476;2022-12-18T05:34:49;-3.80;99.90
12166;DHT22;6146;48.128;11.476;2022-12-18T05:37:14;-3.80;99.90
12166;DHT22;6146;48.128;11.476;2022-12-18T05:39:40;-3.70;99.90
12166;DHT22;6146;48.128;11.476;2022-12-18T05:42:05;-3.80;99.90
12166;DHT22;6146;48.128;11.476;2022-12-18T05:44:31;-3.80;99.90
12166;DHT22;6146;48.128;11.476;2022-12-18T05:46:56;-3.90;99.90
12166;DHT22;6146;48.128;11.476;2022-12-18T05:49:22;-3.90;99.90
12166;DHT22;6146;48.128;11.476;2022-12-18T05:51:48;-3.90;99.90
12166;DHT22;6146;48.128;11.476;2022-12-18T05:54:13;-3.90;99.90
12166;DHT22;6146;48.128;11.476;2022-12-18T05:56:39;-3.80;99.90
12166;DHT22;6146;48.128;11.476;2022-12-18T05:59:04;-3.80;99.90
12166;DHT22;6146;48.128;11.476;2022-12-18T06:01:30;-3.70;99.90
12166;DHT22;6146;48.128;11.476;2022-12-18T06:03:55;-3.80;99.90
12166;DHT22;6146;48.128;11.476;2022-12-18T06:06:27;-3.80;99.90
12166;DHT22;6146;48.128;11.476;2022-12-18T06:08:54;-3.70;99.90
12166;DHT22;6146;48.128;11.476;2022-12-18T06:11:23;-3.70;99.90
12166;DHT22;6146;48.128;11.476;2022-12-18T06:13:53;-3.70;99.90
12166;DHT22;6146;48.128;11.476;2022-12-18T06:16:19;-3.70;99.90
12166;DHT22;6146;48.128;11.476;2022-12-18T06:18:45;-3.70;99.90
12166;DHT22;6146;48.128;11.476;2022-12-18T06:21:11;-3.60;99.90
12166;DHT22;6146;48.128;11.476;2022-12-18T06:23:37;-3.60;99.90
12166;DHT22;6146;48.128;11.476;2022-12-18T06:26:07;-3.60;99.90
12166;DHT22;6146;48.128;11.476;2022-12-18T06:28:33;-3.80;99.90
12166;DHT22;6146;48.128;11.476;2022-12-18T06:30:59;-3.90;99.90
12166;DHT22;6146;48.128;11.476;2022-12-18T06:33:26;-3.90;99.90
12166;DHT22;6146;48.128;11.476;2022-12-18T06:35:53;-3.90;99.90
12166;DHT22;6146;48.128;11.476;2022-12-18T06:38:19;-3.90;99.90
12166;DHT22;6146;48.128;11.476;2022-12-18T06:40:45;-3.80;99.90
12166;DHT22;6146;48.128;11.476;2022-12-18T06:43:10;-3.80;99.90
12166;DHT22;6146;48.128;11.476;2022-12-18T06:45:36;-3.70;99.90
12166;DHT22;6146;48.128;11.476;2022-12-18T06:48:01;-3.70;99.90
12166;DHT22;6146;48.128;11.476;2022-12-18T06:50:27;-3.70;99.90
12166;DHT22;6146;48.128;11.476;2022-12-18T06:52:52;-3.80;99.90
12166;DHT22;6146;48.128;11.476;2022-12-18T06:55:18;-3.70;99.90
12166;DHT22;6146;48.128;11.476;2022-12-18T06:57:44;-3.80;99.90
12166;DHT22;6146;48.128;11.476;2022-12-18T07:00:10;-3.80;99.90
12166;DHT22;6146;48.128;11.476;2022-12-18T07:02:35;-3.90;99.90
12166;DHT22;6146;48.128;11.476;2022-12-18T07:05:01;-4.00;99.90
12166;DHT22;6146;48.128;11.476;2022-12-18T07:07:26;-4.00;99.90
12166;DHT22;6146;48.128;11.476;2022-12-18T07:09:52;-4.00;99.90
12166;DHT22;6146;48.128;11.476;2022-12-18T07:12:18;-4.00;99.90
12166;DHT22;6146;48.128;11.476;2022-12-18T07:14:44;-4.00;99.90
12166;DHT22;6146;48.128;11.476;2022-12-18T07:17:09;-4.00;99.90
12166;DHT22;6146;48.128;11.476;2022-12-18T07:19:35;-4.00;99.90
12166;DHT22;6146;48.128;11.476;2022-12-18T07:22:01;-3.90;99.90
12166;DHT22;6146;48.128;11.476;2022-12-18T07:24:26;-3.90;99.90
12166;DHT22;6146;48.128;11.476;2022-12-18T07:26:52;-3.90;99.90
12166;DHT22;6146;48.128;11.476;2022-12-18T07:29:18;-3.80;99.90
12166;DHT22;6146;48.128;11.476;2022-12-18T07:31:43;-3.70;99.90
12166;DHT22;6146;48.128;11.476;2022-12-18T07:34:13;-3.60;99.90
12166;DHT22;6146;48.128;11.476;2022-12-18T07:36:39;-3.70;99.90
12166;DHT22;6146;48.128;11.476;2022-12-18T07:39:04;-3.80;99.90
12166;DHT22;6146;48.128;11.476;2022-12-18T07:41:30;-3.80;99.90
12166;DHT22;6146;48.128;11.476;2022-12-18T07:43:55;-3.90;99.90
12166;DHT22;6146;48.128;11.476;2022-12-18T07:46:22;-3.80;99.90
12166;DHT22;6146;48.128;11.476;2022-12-18T07:48:47;-3.90;99.90
12166;DHT22;6146;48.128;11.476;2022-12-18T07:51:13;-3.90;99.90
12166;DHT22;6146;48.128;11.476;2022-12-18T07:53:39;-3.80;99.90
12166;DHT22;6146;48.128;11.476;2022-12-18T07:56:07;-3.70;99.90
12166;DHT22;6146;48.128;11.476;2022-12-18T07:58:34;-3.70;99.90
12166;DHT22;6146;48.128;11.476;2022-12-18T08:01:07;-3.70;99.90
12166;DHT22;6146;48.128;11.476;2022-12-18T08:03:33;-3.80;99.90
12166;DHT22;6146;48.128;11.476;2022-12-18T08:06:04;-3.70;99.90
12166;DHT22;6146;48.128;11.476;2022-12-18T08:08:31;-4.10;99.90
12166;DHT22;6146;48.128;11.476;2022-12-18T08:10:57;-4.10;99.90
12166;DHT22;6146;48.128;11.476;2022-12-18T08:13:23;-4.20;99.90
12166;DHT22;6146;48.128;11.476;2022-12-18T08:16:00;-4.10;99.90
12166;DHT22;6146;48.128;11.476;2022-12-18T08:18:26;-4.10;99.90
12166;DHT22;6146;48.128;11.476;2022-12-18T08:20:52;-4.20;99.90
12166;DHT22;6146;48.128;11.476;2022-12-18T08:23:17;-4.30;99.90
12166;DHT22;6146;48.128;11.476;2022-12-18T08:25:43;-4.10;99.90
12166;DHT22;6146;48.128;11.476;2022-12-18T08:28:09;-4.10;99.90
12166;DHT22;6146;48.128;11.476;2022-12-18T08:30:35;-3.90;99.90
12166;DHT22;6146;48.128;11.476;2022-12-18T08:33:01;-3.80;99.90
12166;DHT22;6146;48.128;11.476;2022-12-18T08:35:26;-3.90;99.90
12166;DHT22;6146;48.128;11.476;2022-12-18T08:37:52;-3.90;99.90
12166;DHT22;6146;48.128;11.476;2022-12-18T08:40:18;-3.90;99.90
12166;DHT22;6146;48.128;11.476;2022-12-18T08:42:43;-3.90;99.90
12166;DHT22;6146;48.128;11.476;2022-12-18T08:45:28;-3.80;99.90
12166;DHT22;6146;48.128;11.476;2022-12-18T08:47:54;-3.50;99.90
12166;DHT22;6146;48.128;11.476;2022-12-18T08:50:19;-3.40;99.90
12166;DHT22;6146;48.128;11.476;2022-12-18T08:52:45;-3.40;99.90
12166;DHT22;6146;48.128;11.476;2022-12-18T08:55:11;-3.40;99.90
12166;DHT22;6146;48.128;11.476;2022-12-18T08:57:36;-4.40;99.90
12166;DHT22;6146;48.128;11.476;2022-12-18T09:00:03;-3.40;99.90
12166;DHT22;6146;48.128;11.476;2022-12-18T09:02:29;-3.30;99.90
12166;DHT22;6146;48.128;11.476;2022-12-18T09:04:54;-3.10;99.90
12166;DHT22;6146;48.128;11.476;2022-12-18T09:07:20;-3.00;99.90
12166;DHT22;6146;48.128;11.476;2022-12-18T09:09:46;-2.90;99.90
12166;DHT22;6146;48.128;11.476;2022-12-18T09:12:12;-2.90;99.90
12166;DHT22;6146;48.128;11.476;2022-12-18T09:14:37;-2.90;99.90
12166;DHT22;6146;48.128;11.476;2022-12-18T09:17:03;-2.70;99.90
12166;DHT22;6146;48.128;11.476;2022-12-18T09:19:28;-2.70;99.90
12166;DHT22;6146;48.128;11.476;2022-12-18T09:21:54;-2.70;99.90
12166;DHT22;6146;48.128;11.476;2022-12-18T09:24:23;-2.70;99.90
12166;DHT22;6146;48.128;11.476;2022-12-18T09:26:48;-2.90;99.90
12166;DHT22;6146;48.128;11.476;2022-12-18T09:29:15;-2.70;99.90
12166;DHT22;6146;48.128;11.476;2022-12-18T09:31:41;-2.70;99.90
12166;DHT22;6146;48.128;11.476;2022-12-18T09:34:07;-2.80;99.90
12166;DHT22;6146;48.128;11.476;2022-12-18T09:36:33;-2.70;99.90
12166;DHT22;6146;48.128;11.476;2022-12-18T09:38:58;-2.70;99.90
12166;DHT22;6146;48.128;11.476;2022-12-18T09:41:46;-2.70;99.90
12166;DHT22;6146;48.128;11.476;2022-12-18T09:44:23;-2.90;99.90
12166;DHT22;6146;48.128;11.476;2022-12-18T09:47:15;-2.90;99.90
12166;DHT22;6146;48.128;11.476;2022-12-18T09:49:44;-2.70;99.90
12166;DHT22;6146;48.128;11.476;2022-12-18T09:54:55;-2.60;99.90
12166;DHT22;6146;48.128;11.476;2022-12-18T09:57:23;-2.40;99.90
12166;DHT22;6146;48.128;11.476;2022-12-18T10:00:04;-2.40;99.90
12166;DHT22;6146;48.128;11.476;2022-12-18T10:02:32;-2.40;99.90
12166;DHT22;6146;48.128;11.476;2022-12-18T10:05:05;-2.50;99.90
12166;DHT22;6146;48.128;11.476;2022-12-18T10:07:55;-2.40;99.90
12166;DHT22;6146;48.128;11.476;2022-12-18T10:13:19;-2.10;99.90
12166;DHT22;6146;48.128;11.476;2022-12-18T10:16:03;-2.20;99.90
12166;DHT22;6146;48.128;11.476;2022-12-18T10:21:25;-2.70;99.90
12166;DHT22;6146;48.128;11.476;2022-12-18T10:24:32;-2.80;99.90
12166;DHT22;6146;48.128;11.476;2022-12-18T10:27:15;-3.10;99.90
12166;DHT22;6146;48.128;11.476;2022-12-18T10:29:45;-3.10;99.90
12166;DHT22;6146;48.128;11.476;2022-12-18T10:32:22;-2.90;99.90
12166;DHT22;6146;48.128;11.476;2022-12-18T10:34:50;-2.80;99.90
12166;DHT22;6146;48.128;11.476;2022-12-18T10:37:21;-2.80;99.90
12166;DHT22;6146;48.128;11.476;2022-12-18T10:40:13;-2.80;99.90
12166;DHT22;6146;48.128;11.476;2022-12-18T10:42:39;-2.80;99.90
12166;DHT22;6146;48.128;11.476;2022-12-18T10:45:14;-2.60;99.90
12166;DHT22;6146;48.128;11.476;2022-12-18T10:47:48;-2.40;99.90
12166;DHT22;6146;48.128;11.476;2022-12-18T10:50:28;-2.50;99.90
12166;DHT22;6146;48.128;11.476;2022-12-18T10:53:03;-2.40;99.90
12166;DHT22;6146;48.128;11.476;2022-12-18T10:55:35;-2.20;99.90
12166;DHT22;6146;48.128;11.476;2022-12-18T11:01:11;-2.20;99.90
12166;DHT22;6146;48.128;11.476;2022-12-18T11:06:22;-2.40;99.90
12166;DHT22;6146;48.128;11.476;2022-12-18T11:11:27;-2.70;99.90
12166;DHT22;6146;48.128;11.476;2022-12-18T11:14:05;-2.80;99.90
12166;DHT22;6146;48.128;11.476;2022-12-18T11:16:42;-2.70;99.90
12166;DHT22;6146;48.128;11.476;2022-12-18T11:19:21;-2.30;99.90
12166;DHT22;6146;48.128;11.476;2022-12-18T11:21:49;-2.10;99.90
12166;DHT22;6146;48.128;11.476;2022-12-18T11:24:35;-2.00;99.90
12166;DHT22;6146;48.128;11.476;2022-12-18T11:27:03;-2.00;99.90
12166;DHT22;6146;48.128;11.476;2022-12-18T11:29:39;-2.10;99.90
12166;DHT22;6146;48.128;11.476;2022-12-18T11:34:42;-2.20;99.90
12166;DHT22;6146;48.128;11.476;2022-12-18T11:37:11;-1.80;99.90
12166;DHT22;6146;48.128;11.476;2022-12-18T11:39:45;-2.20;99.90
12166;DHT22;6146;48.128;11.476;2022-12-18T11:42:24;-2.30;99.90
12166;DHT22;6146;48.128;11.476;2022-12-18T11:45:21;-2.30;99.90
12166;DHT22;6146;48.128;11.476;2022-12-18T11:47:56;-2.20;99.90
12166;DHT22;6146;48.128;11.476;2022-12-18T11:50:31;-2.00;99.90
12166;DHT22;6146;48.128;11.476;2022-12-18T11:52:58;-1.90;99.90
12166;DHT22;6146;48.128;11.476;2022-12-18T12:06:53;-1.90;99.90
12166;DHT22;6146;48.128;11.476;2022-12-18T12:09:32;-1.70;99.90
12166;DHT22;6146;48.128;11.476;2022-12-18T12:12:29;-1.70;99.90
12166;DHT22;6146;48.128;11.476;2022-12-18T12:15:28;-1.70;99.90
12166;DHT22;6146;48.128;11.476;2022-12-18T12:21:21;-1.70;99.90
12166;DHT22;6146;48.128;11.476;2022-12-18T12:24:00;-1.70;99.90
12166;DHT22;6146;48.128;11.476;2022-12-18T12:26:35;-1.70;99.90
12166;DHT22;6146;48.128;11.476;2022-12-18T12:31:56;-2.00;99.90
12166;DHT22;6146;48.128;11.476;2022-12-18T12:37:12;-2.30;99.90
12166;DHT22;6146;48.128;11.476;2022-12-18T12:39:41;-2.40;99.90
12166;DHT22;6146;48.128;11.476;2022-12-18T12:42:20;-2.40;99.90
12166;DHT22;6146;48.128;11.476;2022-12-18T12:45:16;-2.50;99.90
12166;DHT22;6146;48.128;11.476;2022-12-18T12:47:44;-2.50;99.90
12166;DHT22;6146;48.128;11.476;2022-12-18T12:50:15;-2.50;99.90
12166;DHT22;6146;48.128;11.476;2022-12-18T12:52:45;-2.40;99.90
12166;DHT22;6146;48.128;11.476;2022-12-18T12:55:23;-2.20;99.90
12166;DHT22;6146;48.128;11.476;2022-12-18T13:00:25;-1.90;99.90
12166;DHT22;6146;48.128;11.476;2022-12-18T13:05:21;-1.80;99.90
12166;DHT22;6146;48.128;11.476;2022-12-18T13:07:59;-1.80;99.90
12166;DHT22;6146;48.128;11.476;2022-12-18T13:13:03;-2.00;99.90
12166;DHT22;6146;48.128;11.476;2022-12-18T13:15:42;-1.90;99.90
12166;DHT22;6146;48.128;11.476;2022-12-18T13:18:18;-1.80;99.90
12166;DHT22;6146;48.128;11.476;2022-12-18T13:31:00;-2.60;99.90
12166;DHT22;6146;48.128;11.476;2022-12-18T13:38:43;-2.50;99.90
12166;DHT22;6146;48.128;11.476;2022-12-18T13:43:46;-2.40;99.90
12166;DHT22;6146;48.128;11.476;2022-12-18T13:46:43;-2.70;99.90
12166;DHT22;6146;48.128;11.476;2022-12-18T13:51:40;-3.10;99.90
12166;DHT22;6146;48.128;11.476;2022-12-18T13:56:45;-3.70;99.90
12166;DHT22;6146;48.128;11.476;2022-12-18T14:01:57;-3.80;99.90
12166;DHT22;6146;48.128;11.476;2022-12-18T14:04:28;-3.80;99.90
12166;DHT22;6146;48.128;11.476;2022-12-18T14:07:15;-3.60;99.90
12166;DHT22;6146;48.128;11.476;2022-12-18T14:09:43;-3.50;99.90
12166;DHT22;6146;48.128;11.476;2022-12-18T14:12:31;-3.30;99.90
12166;DHT22;6146;48.128;11.476;2022-12-18T14:17:58;-3.50;99.90
12166;DHT22;6146;48.128;11.476;2022-12-18T14:20:25;-3.60;99.90
12166;DHT22;6146;48.128;11.476;2022-12-18T14:22:52;-3.60;99.90
12166;DHT22;6146;48.128;11.476;2022-12-18T14:25:23;-3.70;99.90
12166;DHT22;6146;48.128;11.476;2022-12-18T14:30:41;-3.60;99.90
12166;DHT22;6146;48.128;11.476;2022-12-18T14:33:18;-3.50;99.90
12166;DHT22;6146;48.128;11.476;2022-12-18T14:35:59;-3.50;99.90
12166;DHT22;6146;48.128;11.476;2022-12-18T14:38:34;-3.40;99.90
12166;DHT22;6146;48.128;11.476;2022-12-18T14:41:09;-3.50;99.90
12166;DHT22;6146;48.128;11.476;2022-12-18T14:43:36;-3.70;99.90
12166;DHT22;6146;48.128;11.476;2022-12-18T14:46:04;-3.70;99.90
12166;DHT22;6146;48.128;11.476;2022-12-18T14:48:39;-3.70;99.90
12166;DHT22;6146;48.128;11.476;2022-12-18T14:51:18;-3.70;99.90
12166;DHT22;6146;48.128;11.476;2022-12-18T14:53:45;-3.70;99.90
12166;DHT22;6146;48.128;11.476;2022-12-18T14:56:18;-3.80;99.90
12166;DHT22;6146;48.128;11.476;2022-12-18T15:01:26;-3.90;99.90
12166;DHT22;6146;48.128;11.476;2022-12-18T15:03:53;-3.90;99.90
12166;DHT22;6146;48.128;11.476;2022-12-18T15:06:35;-4.20;99.90
12166;DHT22;6146;48.128;11.476;2022-12-18T15:09:24;-4.20;99.90
12166;DHT22;6146;48.128;11.476;2022-12-18T15:11:55;-4.10;99.90
12166;DHT22;6146;48.128;11.476;2022-12-18T15:17:03;-3.90;99.90
12166;DHT22;6146;48.128;11.476;2022-12-18T15:19:42;-3.90;99.90
12166;DHT22;6146;48.128;11.476;2022-12-18T15:22:26;-4.00;99.90
12166;DHT22;6146;48.128;11.476;2022-12-18T15:24:52;-4.00;99.90
12166;DHT22;6146;48.128;11.476;2022-12-18T15:27:27;-3.80;99.90
12166;DHT22;6146;48.128;11.476;2022-12-18T15:32:38;-3.70;99.90
12166;DHT22;6146;48.128;11.476;2022-12-18T15:37:33;-3.70;99.90
12166;DHT22;6146;48.128;11.476;2022-12-18T15:39:59;-3.80;99.90
12166;DHT22;6146;48.128;11.476;2022-12-18T15:42:24;-3.80;99.90
12166;DHT22;6146;48.128;11.476;2022-12-18T15:45:12;-3.80;99.90
12166;DHT22;6146;48.128;11.476;2022-12-18T15:47:38;-3.80;99.90
12166;DHT22;6146;48.128;11.476;2022-12-18T15:50:04;-3.80;99.90
12166;DHT22;6146;48.128;11.476;2022-12-18T15:52:32;-3.80;99.90
12166;DHT22;6146;48.128;11.476;2022-12-18T15:55:08;-3.80;99.90
12166;DHT22;6146;48.128;11.476;2022-12-18T15:57:53;-3.80;99.90
12166;DHT22;6146;48.128;11.476;2022-12-18T16:00:19;-3.90;99.90
12166;DHT22;6146;48.128;11.476;2022-12-18T16:02:44;-4.00;99.90
12166;DHT22;6146;48.128;11.476;2022-12-18T16:05:14;-4.00;99.90
12166;DHT22;6146;48.128;11.476;2022-12-18T16:07:40;-4.10;99.90
12166;DHT22;6146;48.128;11.476;2022-12-18T16:10:06;-4.10;99.90
12166;DHT22;6146;48.128;11.476;2022-12-18T16:12:32;-4.10;99.90
12166;DHT22;6146;48.128;11.476;2022-12-18T16:14:57;-4.20;99.90
12166;DHT22;6146;48.128;11.476;2022-12-18T16:17:23;-4.20;99.90
12166;DHT22;6146;48.128;11.476;2022-12-18T16:19:48;-4.30;99.90
12166;DHT22;6146;48.128;11.476;2022-12-18T16:22:19;-4.40;99.90
12166;DHT22;6146;48.128;11.476;2022-12-18T16:24:46;-4.60;99.90
12166;DHT22;6146;48.128;11.476;2022-12-18T16:27:12;-4.50;99.90
12166;DHT22;6146;48.128;11.476;2022-12-18T16:29:37;-4.50;99.90
12166;DHT22;6146;48.128;11.476;2022-12-18T16:32:03;-4.40;99.90
12166;DHT22;6146;48.128;11.476;2022-12-18T16:34:31;-4.40;99.90
12166;DHT22;6146;48.128;11.476;2022-12-18T16:36:59;-4.30;99.90
12166;DHT22;6146;48.128;11.476;2022-12-18T16:39:26;-4.30;99.90
12166;DHT22;6146;48.128;11.476;2022-12-18T16:41:51;-4.30;99.90
12166;DHT22;6146;48.128;11.476;2022-12-18T16:44:17;-4.30;99.90
12166;DHT22;6146;48.128;11.476;2022-12-18T16:46:43;-4.20;99.90
12166;DHT22;6146;48.128;11.476;2022-12-18T16:49:11;-4.20;99.90
12166;DHT22;6146;48.128;11.476;2022-12-18T16:51:37;-4.30;99.90
12166;DHT22;6146;48.128;11.476;2022-12-18T16:54:03;-4.30;99.90
12166;DHT22;6146;48.128;11.476;2022-12-18T16:56:29;-4.40;99.90
12166;DHT22;6146;48.128;11.476;2022-12-18T16:58:57;-4.40;99.90
12166;DHT22;6146;48.128;11.476;2022-12-18T17:01:24;-4.40;99.90
12166;DHT22;6146;48.128;11.476;2022-12-18T17:03:54;-4.40;99.90
12166;DHT22;6146;48.128;11.476;2022-12-18T17:06:22;-4.30;99.90
12166;DHT22;6146;48.128;11.476;2022-12-18T17:08:48;-4.40;99.90
12166;DHT22;6146;48.128;11.476;2022-12-18T17:11:13;-4.40;99.90
12166;DHT22;6146;48.128;11.476;2022-12-18T17:13:39;-4.40;99.90
12166;DHT22;6146;48.128;11.476;2022-12-18T17:16:06;-4.20;99.90
12166;DHT22;6146;48.128;11.476;2022-12-18T17:18:34;-4.30;99.90
12166;DHT22;6146;48.128;11.476;2022-12-18T17:21:05;-4.30;99.90
12166;DHT22;6146;48.128;11.476;2022-12-18T17:23:34;-4.40;99.90
12166;DHT22;6146;48.128;11.476;2022-12-18T17:26:10;-4.40;99.90
12166;DHT22;6146;48.128;11.476;2022-12-18T17:28:38;-4.40;99.90
12166;DHT22;6146;48.128;11.476;2022-12-18T17:31:20;-4.40;99.90
12166;DHT22;6146;48.128;11.476;2022-12-18T17:33:48;-4.30;99.90
12166;DHT22;6146;48.128;11.476;2022-12-18T17:36:14;-4.30;99.90
12166;DHT22;6146;48.128;11.476;2022-12-18T17:38:49;-4.20;99.90